• Join FlightAware (Why Join?)
  • Login
  • US Flag 
12:42PM EST


 

Airport Tracker/Info


-or-


 

Live Flight TrackerFlight Track Log ✈ N75AW ✈ 24-Jul-2013 ✈ KAPF - MYEH / ELH

Flight Track Log - Related Links

Times and Time Zones

All times are in EDT time to prevent confusion due to time zone crossing. See the N75AW flight status page for this flight to view local times or setup timezone preferences in your user account.

Time Position Orientation Groundspeed Altitude Reporting Facility
EDT Latitude Longitude Course Direction KTS MPH feet Rate Location/Type
08:09AM 26.0469 -81.6733 163° South 191 220 5,000  Level Miami Center
08:10AM 25.9981 -81.6436 151° Southeast 185 213 7,000 1,860 Climbing Miami Center
08:11AM 25.9483 -81.6253 162° South 185 213 8,800 1,680 Climbing Miami Center
08:12AM 25.8944 -81.6117 167° South 192 221 10,400 1,680 Climbing Miami Center
08:13AM 25.8005 -81.5882 166° South  Level FlightAware Approximate
08:14AM 25.7371 -81.5735 163° South  Level FlightAware Approximate
08:14AM 25.8517 -81.5153 116° Southeast 169 194 14,000  Level Miami Center
08:15AM 25.8494 -81.4553 92° East 175 201 15,800 1,740 Climbing Miami Center
08:16AM 25.8450 -81.3953 95° East 188 216 17,500 1,560 Climbing Miami Center
08:17AM 25.8447 -81.3353 90° East 188 216 19,000 1,260 Climbing Miami Center
08:18AM 25.8383 -81.2772 97° East 188 216 20,100 480 Climbing Miami Center
08:19AM 25.8322 -81.1986 95° East 218 251 20,000 -60 Descending Miami Center
08:20AM 25.8283 -81.1153 93° East 251 289 20,000  Level Miami Center
08:21AM 25.8225 -81.0275 94° East 273 314 20,100 300 Climbing Miami Center
08:22AM 25.8167 -80.9419 94° East 278 320 20,700 540 Climbing Miami Center
08:23AM 25.8147 -80.8586 91° East 272 313 21,200 240 Climbing Miami Center
08:24AM 25.8064 -80.7753 96° East 272 313 21,200  Level Miami Center
08:25AM 25.8006 -80.6897 94° East 272 313 21,200  Level Miami Center
08:26AM 25.7944 -80.6019 94° East 277 319 21,200  Level Miami Center
08:27AM 25.7903 -80.5119 93° East 277 319 21,200  Level Miami Center
08:28AM 25.7842 -80.4242 94° East 282 325 21,200  Level Miami Center
08:29AM 25.7778 -80.3361 95° East 287 330 21,200  Level Miami Center
08:30AM 25.7694 -80.2483 96° East 287 330 21,200  Level Miami Center
08:31AM 25.7631 -80.1628 95° East 287 330 21,200  Level Miami Center
08:32AM 25.7589 -80.0750 93° East 287 330 21,200  Level Miami Center
08:33AM 25.7522 -79.9872 95° East 287 330 21,200  Level Miami Center
08:34AM 25.7436 -79.8992 96° East 287 330 21,200 -60 Level Miami Center
08:35AM 25.7392 -79.8092 93° East 287 330 21,100 -60 Descending Miami Center
08:36AM 25.7328 -79.7214 95° East 293 337 21,100  Level Miami Center
08:37AM 25.7281 -79.6336 93° East 293 337 21,100  Level Miami Center
08:38AM 25.7214 -79.5436 95° East 293 337 21,100  Level Miami Center
08:39AM 25.7147 -79.4558 95° East 293 337 21,100  Level Miami Center
08:40AM 25.7078 -79.3681 95° East 293 337 21,100  Level Miami Center
08:41AM 25.7008 -79.2803 95° East 288 331 21,100  Level Miami Center
08:42AM 25.6919 -79.1947 97° East 288 331 21,100  Level Miami Center
08:43AM 25.6892 -79.1047 92° East 288 331 21,100  Level Miami Center
08:44AM 25.6819 -79.0169 95° East 288 331 21,100  Level Miami Center
08:45AM 25.6728 -78.9408 98° East 288 331 21,100  Level Miami Center
08:46AM 25.6675 -78.8531 94° East 288 331 21,100  Level Miami Center
08:47AM 25.6689 -78.7656 89° East 283 326 21,100  Level Miami Center
08:48AM 25.6719 -78.6756 88° East 283 326 21,100  Level Miami Center
08:49AM 25.6689 -78.5881 92° East 288 331 21,100  Level Miami Center
08:50AM 25.6678 -78.5003 91° East 288 331 21,100  Level Miami Center
08:51AM 25.6689 -78.4106 89° East 287 330 21,100  Level Miami Center
08:52AM 25.6592 -78.3228 97° East 287 330 21,100  Level Miami Center
08:53AM 25.6517 -78.2350 95° East 287 330 21,100 -240 Level Miami Center
08:54AM 25.6400 -78.1450 98° East 292 336 20,700 -780 Descending Miami Center
08:55AM 25.6303 -78.0481 96° East 302 348 19,600 -1,020 Descending Miami Center
08:56AM 25.6206 -77.9511 96° East 307 353 18,700 -900 Descending Miami Center
08:57AM 25.6089 -77.8497 97° East 312 359 17,900 -900 Descending Miami Center
08:58AM 25.6011 -77.7553 95° East 312 359 16,900 -1,260 Descending Miami Center
08:59AM 25.5892 -77.6606 98° East 312 359 15,400 -1,440 Descending Miami Center
09:00AM 25.5792 -77.5683 97° East 307 353 14,100 -1,260 Descending Miami Center
09:01AM 25.5692 -77.4786 97° East 307 353 12,900 -1,200 Descending Miami Center